createdAt,value
2018-05-23T00:01:15.654Z,101188.86
2018-05-23T00:03:44.464Z,101191.26
2018-05-23T00:06:13.297Z,101195.72
2018-05-23T00:08:42.144Z,101193.67
2018-05-23T00:11:10.976Z,101191.95
2018-05-23T00:13:39.818Z,101190.23
2018-05-23T00:16:08.685Z,101191.77
2018-05-23T00:18:37.523Z,101191.95
2018-05-23T00:21:06.367Z,101195.56
2018-05-23T00:23:35.224Z,101200.91
2018-05-23T00:26:04.063Z,101199.90
2018-05-23T00:28:32.932Z,101200.08
2018-05-23T00:31:01.800Z,101212.11
2018-05-23T00:33:30.621Z,101212.46
2018-05-23T00:35:59.445Z,101208.34
2018-05-23T00:38:28.292Z,101214.69
2018-05-23T00:40:57.086Z,101216.91
2018-05-23T00:43:25.904Z,101206.97
2018-05-23T00:45:54.753Z,101210.52
2018-05-23T00:48:23.572Z,101212.06
2018-05-23T00:50:52.408Z,101212.58
2018-05-23T00:53:21.254Z,101207.09
2018-05-23T00:55:50.094Z,101216.35
2018-05-23T00:58:18.925Z,101213.66
2018-05-23T01:00:47.772Z,101218.11
2018-05-23T01:03:16.605Z,101220.84
2018-05-23T01:05:45.472Z,101223.94
2018-05-23T01:08:14.285Z,101221.88
2018-05-23T01:10:43.113Z,101224.66
2018-05-23T01:13:11.948Z,101223.64
2018-05-23T01:15:40.767Z,101222.27
2018-05-23T01:18:09.625Z,101220.05
2018-05-23T01:20:38.447Z,101219.23
2018-05-23T01:23:07.325Z,101226.12
2018-05-23T01:25:36.186Z,101226.80
2018-05-23T01:28:04.998Z,101222.01
2018-05-23T01:30:33.855Z,101226.98
2018-05-23T01:33:02.698Z,101229.58
2018-05-23T01:35:31.540Z,101233.06
2018-05-23T01:38:00.373Z,101229.72
2018-05-23T01:40:29.213Z,101231.94
2018-05-23T01:42:58.056Z,101229.20
2018-05-23T01:45:26.895Z,101238.69
2018-05-23T01:47:55.700Z,101237.77
2018-05-23T01:50:24.556Z,101240.54
2018-05-23T01:52:53.356Z,101235.41
2018-05-23T01:55:22.187Z,101240.39
2018-05-23T01:57:51.023Z,101239.88
2018-05-23T02:00:19.868Z,101243.64
2018-05-23T02:02:48.729Z,101245.17
2018-05-23T02:05:17.559Z,101247.94
2018-05-23T02:07:46.393Z,101252.91
2018-05-23T02:10:15.240Z,101251.02
2018-05-23T02:12:44.057Z,101253.24
2018-05-23T02:15:12.891Z,101257.52
2018-05-23T02:17:41.761Z,101256.33
2018-05-23T02:20:10.610Z,101257.50
2018-05-23T02:22:39.468Z,101260.28
2018-05-23T02:25:08.313Z,101255.31
2018-05-23T02:27:37.232Z,101259.77
2018-05-23T02:30:06.096Z,101261.14
2018-05-23T02:32:34.918Z,101257.64
2018-05-23T02:35:03.790Z,101264.37
2018-05-23T02:37:32.603Z,101268.16
2018-05-23T02:40:01.496Z,101266.11
2018-05-23T02:42:30.367Z,101266.10
2018-05-23T02:44:59.167Z,101272.71
2018-05-23T02:47:28.019Z,101265.59
2018-05-23T02:49:56.856Z,101273.25
2018-05-23T02:52:25.698Z,101272.77
2018-05-23T02:54:54.520Z,101272.94
2018-05-23T02:57:23.382Z,101274.64
2018-05-23T02:59:52.216Z,101282.00
2018-05-23T03:02:21.053Z,101282.16
2018-05-23T03:04:49.888Z,101290.58
2018-05-23T03:07:18.718Z,101283.55
2018-05-23T03:09:47.550Z,101280.30
2018-05-23T03:12:16.378Z,101285.42
2018-05-23T03:14:45.221Z,101278.22
2018-05-23T03:17:14.024Z,101278.44
2018-05-23T03:19:42.843Z,101282.54
2018-05-23T03:22:11.711Z,101280.10
2018-05-23T03:24:40.569Z,101281.81
2018-05-23T03:27:09.384Z,101282.88
2018-05-23T03:29:38.236Z,101286.27
2018-05-23T03:32:07.069Z,101285.58
2018-05-23T03:34:35.915Z,101282.87
2018-05-23T03:37:04.755Z,101285.92
2018-05-23T03:39:33.600Z,101281.65
2018-05-23T03:42:02.428Z,101283.36
2018-05-23T03:44:31.345Z,101288.02
2018-05-23T03:47:00.171Z,101289.34
2018-05-23T03:49:28.998Z,101291.09
2018-05-23T03:51:57.834Z,101292.12
2018-05-23T03:54:26.681Z,101287.64
2018-05-23T03:56:55.484Z,101283.55
2018-05-23T04:00:03.181Z,101294.34
2018-05-23T04:03:27.783Z,101290.40
2018-05-23T04:06:38.036Z,101292.13
2018-05-23T04:09:06.872Z,101286.45
2018-05-23T04:11:35.705Z,101298.97
2018-05-23T04:14:04.565Z,101291.09
2018-05-23T04:16:33.402Z,101302.54
2018-05-23T04:19:02.213Z,101300.14
2018-05-23T04:21:31.049Z,101307.52
2018-05-23T04:23:59.877Z,101319.16
2018-05-23T04:26:28.750Z,101317.10
2018-05-23T04:28:57.586Z,101314.87
2018-05-23T04:31:26.416Z,101320.19
2018-05-23T04:33:55.369Z,101323.78
2018-05-23T04:36:24.196Z,101323.46
2018-05-23T04:38:53.010Z,101335.28
2018-05-23T04:41:21.851Z,101335.45
2018-05-23T04:43:50.757Z,101334.07
2018-05-23T04:46:19.577Z,101340.58
2018-05-23T04:48:48.473Z,101349.82
2018-05-23T04:51:17.252Z,101352.05
2018-05-23T04:53:46.102Z,101353.42
2018-05-23T04:56:14.932Z,101351.56
2018-05-23T04:58:43.757Z,101361.81
2018-05-23T05:01:12.583Z,101362.16
2018-05-23T05:03:41.402Z,101364.22
2018-05-23T05:06:10.350Z,101370.91
2018-05-23T05:08:39.176Z,101375.36
2018-05-23T05:11:08.004Z,101376.19
2018-05-23T05:13:36.825Z,101383.22
2018-05-23T05:16:05.666Z,101382.54
2018-05-23T05:18:34.496Z,101382.19
2018-05-23T05:21:03.319Z,101387.86
2018-05-23T05:23:32.147Z,101398.63
2018-05-23T05:26:00.964Z,101395.58
2018-05-23T05:28:29.778Z,101393.34
2018-05-23T05:30:58.622Z,101400.20
2018-05-23T05:33:27.567Z,101401.03
2018-05-23T05:35:56.409Z,101405.67
2018-05-23T05:38:25.238Z,101409.77
2018-05-23T05:40:54.071Z,101414.91
2018-05-23T05:43:22.945Z,101414.23
2018-05-23T05:45:51.784Z,101413.55
2018-05-23T05:48:20.642Z,101415.92
2018-05-23T05:50:49.459Z,101415.92
2018-05-23T05:53:18.321Z,101422.79
2018-05-23T05:55:47.178Z,101429.66
2018-05-23T05:58:16.002Z,101429.66
2018-05-23T06:00:44.840Z,101429.82
2018-05-23T06:03:13.670Z,101431.02
2018-05-23T06:05:42.526Z,101444.53
2018-05-23T06:08:11.364Z,101438.02
2018-05-23T06:10:40.211Z,101435.30
2018-05-23T06:13:09.032Z,101444.20
2018-05-23T06:15:37.917Z,101445.06
2018-05-23T06:18:06.767Z,101444.55
2018-05-23T06:20:35.602Z,101444.70
2018-05-23T06:23:04.455Z,101446.25
2018-05-23T06:25:33.507Z,101449.34
2018-05-23T06:28:02.341Z,101449.32
2018-05-23T06:30:31.197Z,101451.90
2018-05-23T06:32:59.972Z,101460.92
2018-05-23T06:35:28.835Z,101454.61
2018-05-23T06:37:57.699Z,101460.44
2018-05-23T06:40:26.522Z,101474.81
2018-05-23T06:42:55.359Z,101470.39
2018-05-23T06:45:24.202Z,101469.36
2018-05-23T06:47:53.047Z,101479.14
2018-05-23T06:50:21.879Z,101479.98
2018-05-23T06:52:50.732Z,101478.95
2018-05-23T06:55:19.577Z,101478.78
2018-05-23T06:57:48.520Z,101481.52
2018-05-23T07:00:17.315Z,101486.00
2018-05-23T07:02:46.122Z,101487.70
2018-05-23T07:05:14.942Z,101495.24
2018-05-23T07:07:43.796Z,101498.15
2018-05-23T07:10:12.689Z,101501.25
2018-05-23T07:12:41.582Z,101512.57
2018-05-23T07:15:10.425Z,101501.59
2018-05-23T07:17:39.340Z,101498.52
2018-05-23T07:20:08.179Z,101509.47
2018-05-23T07:22:37.121Z,101504.41
2018-05-23T07:25:05.936Z,101507.87
2018-05-23T07:27:34.828Z,101514.02
2018-05-23T07:30:03.716Z,101516.22
2018-05-23T07:32:32.581Z,101514.63
2018-05-23T07:35:01.417Z,101521.45
2018-05-23T07:37:30.280Z,101520.43
2018-05-23T07:39:59.118Z,101519.56
2018-05-23T07:42:28.044Z,101520.12
2018-05-23T07:44:56.945Z,101533.27
2018-05-23T07:47:25.844Z,101524.80
2018-05-23T07:49:54.710Z,101517.41
2018-05-23T07:52:23.540Z,101527.97
2018-05-23T07:54:52.409Z,101521.09
2018-05-23T07:57:21.230Z,101518.75
2018-05-23T07:59:50.097Z,101521.06
2018-05-23T08:02:18.944Z,101526.25
2018-05-23T08:04:47.845Z,101525.26
2018-05-23T08:07:16.694Z,101530.11
2018-05-23T08:09:45.530Z,101534.39
2018-05-23T08:12:14.360Z,101527.91
2018-05-23T08:14:43.226Z,101534.42
2018-05-23T08:17:12.094Z,101534.87
2018-05-23T08:19:41.127Z,101541.06
2018-05-23T08:22:09.985Z,101543.30
2018-05-23T08:24:38.803Z,101545.72
2018-05-23T08:27:07.808Z,101547.88
2018-05-23T08:29:36.629Z,101554.03
2018-05-23T08:32:05.458Z,101548.52
2018-05-23T08:34:34.360Z,101550.56
2018-05-23T08:37:03.212Z,101553.28
2018-05-23T08:39:32.010Z,101556.30
2018-05-23T08:42:00.830Z,101555.78
2018-05-23T08:44:30.344Z,101557.45
2018-05-23T08:46:59.231Z,101559.38
2018-05-23T08:49:28.081Z,101557.41
2018-05-23T08:51:56.935Z,101560.64
2018-05-23T08:54:25.775Z,101557.31
2018-05-23T08:56:54.595Z,101557.03
2018-05-23T08:59:23.464Z,101562.07
2018-05-23T09:01:52.319Z,101565.41
2018-05-23T09:04:21.156Z,101564.61
2018-05-23T09:06:50.009Z,101567.66
2018-05-23T09:09:18.861Z,101570.14
2018-05-23T09:11:47.708Z,101569.55
2018-05-23T09:14:16.747Z,101569.23
2018-05-23T09:16:48.776Z,101576.78
2018-05-23T09:19:17.642Z,101574.77
2018-05-23T09:21:46.491Z,101576.79
2018-05-23T09:24:15.354Z,101583.17
2018-05-23T09:26:44.167Z,101579.63
2018-05-23T09:29:13.010Z,101582.64
2018-05-23T09:31:41.851Z,101580.13
2018-05-23T09:34:10.657Z,101586.74
2018-05-23T09:36:39.522Z,101584.64
2018-05-23T09:39:11.315Z,101587.49
2018-05-23T09:41:39.977Z,101590.31
2018-05-23T09:44:08.812Z,101596.88
2018-05-23T09:46:37.668Z,101591.03
2018-05-23T09:49:06.516Z,101597.02
2018-05-23T09:51:35.366Z,101596.64
2018-05-23T09:54:04.183Z,101595.27
2018-05-23T09:56:33.075Z,101593.88
2018-05-23T09:59:02.217Z,101604.45
2018-05-23T10:01:31.000Z,101602.16
2018-05-23T10:03:59.929Z,101604.11
2018-05-23T10:06:28.770Z,101601.56
2018-05-23T10:08:57.604Z,101604.97
2018-05-23T10:11:26.471Z,101606.89
2018-05-23T10:13:55.314Z,101609.27
2018-05-23T10:16:24.298Z,101611.62
2018-05-23T10:18:53.124Z,101615.08
2018-05-23T10:21:22.087Z,101612.55
2018-05-23T10:23:50.925Z,101613.41
2018-05-23T10:26:19.863Z,101616.37
2018-05-23T10:28:48.596Z,101616.76
2018-05-23T10:31:17.429Z,101616.23
2018-05-23T10:33:46.272Z,101618.19
2018-05-23T10:36:15.087Z,101620.77
2018-05-23T10:38:43.914Z,101613.98
2018-05-23T10:41:12.753Z,101616.22
2018-05-23T10:43:41.680Z,101611.59
2018-05-23T10:46:11.499Z,101611.56
2018-05-23T10:48:40.587Z,101616.41
2018-05-23T10:51:09.400Z,101614.98
2018-05-23T10:53:38.286Z,101619.87
2018-05-23T10:56:07.040Z,101620.40
2018-05-23T10:58:35.897Z,101623.05
2018-05-23T11:01:04.720Z,101627.94
2018-05-23T11:03:33.558Z,101627.03
2018-05-23T11:06:02.456Z,101630.06
2018-05-23T11:08:31.196Z,101630.95
2018-05-23T11:11:00.061Z,101624.32
2018-05-23T11:13:28.877Z,101624.66
2018-05-23T11:15:57.698Z,101623.91
2018-05-23T11:18:26.533Z,101621.59
2018-05-23T11:20:55.378Z,101619.26
2018-05-23T11:23:24.217Z,101620.80
2018-05-23T11:25:53.044Z,101629.38
2018-05-23T11:28:21.897Z,101625.01
2018-05-23T11:30:50.751Z,101637.94
2018-05-23T11:33:19.579Z,101633.37
2018-05-23T11:35:48.383Z,101633.52
2018-05-23T11:38:17.301Z,101638.34
2018-05-23T11:40:46.246Z,101642.23
2018-05-23T11:43:14.988Z,101636.20
2018-05-23T11:45:43.962Z,101634.34
2018-05-23T11:48:12.823Z,101632.04
2018-05-23T11:50:41.646Z,101625.77
2018-05-23T11:53:10.498Z,101628.30
2018-05-23T11:55:39.362Z,101624.30
2018-05-23T11:58:08.205Z,101617.77
2018-05-23T12:00:37.024Z,101618.61
2018-05-23T12:03:05.875Z,101615.46
2018-05-23T12:05:34.702Z,101613.34
2018-05-23T12:08:03.543Z,101607.39
2018-05-23T12:10:32.431Z,101606.83
2018-05-23T12:13:01.247Z,101604.38
2018-05-23T12:15:31.095Z,101608.61
2018-05-23T12:17:59.946Z,101603.80
2018-05-23T12:20:28.873Z,101599.98
2018-05-23T12:22:57.677Z,101596.09
2018-05-23T12:25:26.520Z,101601.58
2018-05-23T12:27:55.328Z,101599.64
2018-05-23T12:30:24.144Z,101594.11
2018-05-23T12:32:52.946Z,101595.50
2018-05-23T12:35:21.782Z,101594.02
2018-05-23T12:37:50.671Z,101594.02
2018-05-23T12:40:19.473Z,101587.94
2018-05-23T12:42:48.305Z,101588.72
2018-05-23T12:45:17.098Z,101588.30
2018-05-23T12:47:45.939Z,101587.09
2018-05-23T12:50:14.753Z,101589.45
2018-05-23T12:52:43.621Z,101583.11
2018-05-23T12:55:12.632Z,101585.69
2018-05-23T12:57:41.485Z,101585.74
2018-05-23T13:00:10.291Z,101580.70
2018-05-23T13:02:39.092Z,101577.28
2018-05-23T13:05:07.916Z,101582.03
2018-05-23T13:07:36.723Z,101572.44
2018-05-23T13:10:05.583Z,101574.75
2018-05-23T13:12:34.596Z,101567.98
2018-05-23T13:15:03.247Z,101571.84
2018-05-23T13:17:32.061Z,101563.98
2018-05-23T13:20:00.893Z,101567.27
2018-05-23T13:22:29.728Z,101562.96
2018-05-23T13:24:58.548Z,101557.00
2018-05-23T13:27:27.381Z,101558.39
2018-05-23T13:29:56.256Z,101553.97
2018-05-23T13:32:25.062Z,101557.06
2018-05-23T13:34:53.924Z,101551.08
2018-05-23T13:37:22.689Z,101544.64
2018-05-23T13:39:51.499Z,101546.95
2018-05-23T13:42:20.328Z,101550.39
2018-05-23T13:44:49.168Z,101553.33
2018-05-23T13:47:17.979Z,101546.95
2018-05-23T13:49:46.833Z,101547.44
2018-05-23T13:52:15.655Z,101554.10
2018-05-23T13:54:44.455Z,101553.42
2018-05-23T13:57:13.272Z,101541.00
2018-05-23T13:59:42.102Z,101539.11
2018-05-23T14:02:11.029Z,101536.78
2018-05-23T14:04:39.900Z,101534.03
2018-05-23T14:07:08.738Z,101526.69
2018-05-23T14:09:37.671Z,101524.17
2018-05-23T14:12:06.441Z,101538.86
2018-05-23T14:14:35.251Z,101525.19
2018-05-23T14:17:04.096Z,101524.63
2018-05-23T14:19:32.915Z,101529.34
2018-05-23T14:22:01.749Z,101519.48
2018-05-23T14:24:30.556Z,101525.01
2018-05-23T14:26:59.430Z,101511.11
2018-05-23T14:29:28.260Z,101503.28
2018-05-23T14:31:57.062Z,101509.85
2018-05-23T14:34:25.896Z,101504.83
2018-05-23T14:36:54.702Z,101501.37
2018-05-23T14:39:23.540Z,101515.59
2018-05-23T14:41:52.359Z,101513.23
2018-05-23T14:44:21.200Z,101523.27
2018-05-23T14:46:49.989Z,101518.80
2018-05-23T14:49:21.994Z,101511.36
2018-05-23T14:51:50.830Z,101513.77
2018-05-23T14:54:19.662Z,101509.14
2018-05-23T14:56:48.523Z,101505.09
2018-05-23T14:59:17.350Z,101517.14
2018-05-23T15:01:46.135Z,101513.03
2018-05-23T15:04:14.923Z,101522.98
2018-05-23T15:06:43.733Z,101518.80
2018-05-23T15:09:12.626Z,101506.73
2018-05-23T15:11:41.467Z,101516.48
2018-05-23T15:14:11.322Z,101510.37
2018-05-23T15:16:39.971Z,101500.63
2018-05-23T15:19:08.778Z,101519.09
2018-05-23T15:21:37.625Z,101524.66
2018-05-23T15:24:06.447Z,101521.64
2018-05-23T15:26:35.306Z,101527.75
2018-05-23T15:29:04.132Z,101530.16
2018-05-23T15:31:32.999Z,101530.62
2018-05-23T15:34:01.759Z,101528.06
2018-05-23T15:36:30.576Z,101528.37
2018-05-23T15:38:59.405Z,101524.11
2018-05-23T15:41:28.283Z,101527.16
2018-05-23T15:43:57.091Z,101530.39
2018-05-23T15:46:25.930Z,101532.86
2018-05-23T15:48:54.739Z,101524.12
2018-05-23T15:51:23.554Z,101531.52
2018-05-23T15:53:52.371Z,101531.25
2018-05-23T15:56:21.205Z,101532.31
2018-05-23T15:58:50.018Z,101532.55
2018-05-23T16:01:18.846Z,101533.85
2018-05-23T16:03:47.699Z,101524.87
2018-05-23T16:06:16.539Z,101528.91
2018-05-23T16:08:45.360Z,101523.20
2018-05-23T16:11:14.179Z,101530.77
2018-05-23T16:13:43.008Z,101531.08
2018-05-23T16:16:11.824Z,101531.19
2018-05-23T16:18:40.700Z,101534.82
2018-05-23T16:21:09.498Z,101532.04
2018-05-23T16:23:38.338Z,101526.65
2018-05-23T16:26:07.158Z,101523.56
2018-05-23T16:28:35.981Z,101538.70
2018-05-23T16:31:04.845Z,101527.53
2018-05-23T16:33:33.652Z,101528.67
2018-05-23T16:36:02.477Z,101536.59
2018-05-23T16:38:31.302Z,101532.88
2018-05-23T16:41:00.103Z,101538.20
2018-05-23T16:43:28.924Z,101541.69
2018-05-23T16:45:57.775Z,101531.77
2018-05-23T16:48:26.582Z,101542.66
2018-05-23T16:50:55.424Z,101534.87
2018-05-23T16:53:24.266Z,101536.91
2018-05-23T16:55:53.090Z,101533.97
2018-05-23T16:58:21.916Z,101550.25
2018-05-23T17:00:50.727Z,101544.55
2018-05-23T17:03:19.547Z,101544.70
2018-05-23T17:05:48.375Z,101554.56
2018-05-23T17:08:17.190Z,101554.36
2018-05-23T17:10:46.001Z,101554.73
2018-05-23T17:13:14.795Z,101561.99
2018-05-23T17:15:43.665Z,101563.23
2018-05-23T17:18:12.460Z,101564.30
2018-05-23T17:20:41.314Z,101568.83
2018-05-23T17:23:10.114Z,101563.77
2018-05-23T17:25:38.927Z,101564.48
2018-05-23T17:28:07.762Z,101571.18
2018-05-23T17:30:36.575Z,101574.59
2018-05-23T17:33:05.376Z,101567.16
2018-05-23T17:35:34.205Z,101574.42
2018-05-23T17:38:03.048Z,101572.10
2018-05-23T17:40:31.917Z,101576.66
2018-05-23T17:43:00.738Z,101574.20
2018-05-23T17:45:29.561Z,101568.29
2018-05-23T17:47:58.401Z,101579.73
2018-05-23T17:50:27.194Z,101576.50
2018-05-23T17:52:56.008Z,101576.85
2018-05-23T17:55:24.861Z,101579.20
2018-05-23T17:57:53.671Z,101584.83
2018-05-23T18:00:22.529Z,101585.07
2018-05-23T18:02:51.364Z,101586.99
2018-05-23T18:05:20.202Z,101588.20
2018-05-23T18:07:49.049Z,101590.33
2018-05-23T18:10:17.856Z,101591.16
2018-05-23T18:12:46.688Z,101593.72
2018-05-23T18:15:15.501Z,101602.57
2018-05-23T18:17:44.140Z,101601.28
2018-05-23T18:20:12.940Z,101602.55
2018-05-23T18:22:41.767Z,101603.30
2018-05-23T18:25:10.582Z,101601.67
2018-05-23T18:27:39.411Z,101599.44
2018-05-23T18:30:08.229Z,101599.55
2018-05-23T18:32:37.078Z,101602.53
2018-05-23T18:35:05.883Z,101598.47
2018-05-23T18:37:34.699Z,101604.58
2018-05-23T18:40:03.492Z,101608.72
2018-05-23T18:42:32.310Z,101611.12
2018-05-23T18:45:01.117Z,101609.61
2018-05-23T18:47:29.956Z,101610.77
2018-05-23T18:49:58.763Z,101610.05
2018-05-23T18:52:27.580Z,101607.05
2018-05-23T18:54:56.390Z,101612.00
2018-05-23T18:57:25.218Z,101607.83
2018-05-23T18:59:54.044Z,101617.32
2018-05-23T19:02:22.866Z,101610.91
2018-05-23T19:04:51.681Z,101617.75
2018-05-23T19:07:20.492Z,101616.54
2018-05-23T19:09:49.321Z,101617.88
2018-05-23T19:12:18.111Z,101621.96
2018-05-23T19:14:46.947Z,101617.64
2018-05-23T19:17:15.779Z,101629.33
2018-05-23T19:19:44.691Z,101632.92
2018-05-23T19:22:13.401Z,101627.41
2018-05-23T19:24:42.200Z,101624.17
2018-05-23T19:27:11.094Z,101622.27
2018-05-23T19:29:39.911Z,101628.06
2018-05-23T19:32:08.712Z,101632.34
2018-05-23T19:34:37.572Z,101631.72
2018-05-23T19:37:06.387Z,101633.82
2018-05-23T19:39:35.239Z,101629.61
2018-05-23T19:42:04.050Z,101636.31
2018-05-23T19:44:32.843Z,101642.62
2018-05-23T19:47:01.693Z,101648.94
2018-05-23T19:49:30.493Z,101646.66
2018-05-23T19:51:59.293Z,101646.36
2018-05-23T19:54:28.158Z,101642.19
2018-05-23T19:56:56.959Z,101648.89
2018-05-23T19:59:25.770Z,101650.09
2018-05-23T20:01:54.635Z,101652.62
2018-05-23T20:04:23.440Z,101654.80
2018-05-23T20:06:52.313Z,101654.55
2018-05-23T20:09:21.133Z,101660.69
2018-05-23T20:11:49.964Z,101662.35
2018-05-23T20:14:19.051Z,101662.64
2018-05-23T20:16:47.643Z,101660.82
2018-05-23T20:19:16.487Z,101662.38
2018-05-23T20:21:45.296Z,101661.59
2018-05-23T20:24:14.083Z,101664.62
2018-05-23T20:26:42.956Z,101667.24
2018-05-23T20:29:13.363Z,101664.33
2018-05-23T20:31:42.136Z,101662.98
2018-05-23T20:34:10.949Z,101663.06
2018-05-23T20:36:39.786Z,101667.30
2018-05-23T20:39:08.616Z,101671.31
2018-05-23T20:41:37.435Z,101666.86
2018-05-23T20:44:06.242Z,101666.70
2018-05-23T20:46:35.058Z,101667.43
2018-05-23T20:49:03.909Z,101674.31
2018-05-23T20:51:32.733Z,101672.09
2018-05-23T20:54:01.601Z,101677.10
2018-05-23T20:56:30.425Z,101676.75
2018-05-23T20:58:59.311Z,101674.69
2018-05-23T21:01:28.081Z,101680.07
2018-05-23T21:03:56.937Z,101683.86
2018-05-23T21:06:25.742Z,101679.92
2018-05-23T21:08:54.583Z,101680.63
2018-05-23T21:11:23.408Z,101678.91
2018-05-23T21:13:52.195Z,101681.35
2018-05-23T21:16:21.022Z,101680.00
2018-05-23T21:18:49.853Z,101676.20
2018-05-23T21:21:18.663Z,101683.09
2018-05-23T21:23:47.475Z,101681.90
2018-05-23T21:26:16.317Z,101681.42
2018-05-23T21:28:45.128Z,101679.55
2018-05-23T21:31:13.970Z,101685.09
2018-05-23T21:33:42.787Z,101683.70
2018-05-23T21:36:11.616Z,101687.50
2018-05-23T21:38:40.448Z,101685.48
2018-05-23T21:41:09.279Z,101683.80
2018-05-23T21:43:38.082Z,101689.48
2018-05-23T21:46:06.955Z,101686.73
2018-05-23T21:48:35.821Z,101690.39
2018-05-23T21:51:04.633Z,101693.48
2018-05-23T21:53:33.446Z,101692.17
2018-05-23T21:56:02.285Z,101692.85
2018-05-23T21:58:31.095Z,101696.28
2018-05-23T22:00:59.923Z,101694.57
2018-05-23T22:03:28.753Z,101696.50
2018-05-23T22:05:57.557Z,101696.67
2018-05-23T22:08:26.370Z,101692.38
2018-05-23T22:10:55.187Z,101702.34
2018-05-23T22:13:24.025Z,101703.41
2018-05-23T22:15:52.848Z,101697.22
2018-05-23T22:18:21.811Z,101697.73
2018-05-23T22:20:50.529Z,101698.94
2018-05-23T22:23:19.363Z,101699.48
2018-05-23T22:25:48.204Z,101699.31
2018-05-23T22:28:17.057Z,101696.91
2018-05-23T22:30:45.934Z,101709.14
2018-05-23T22:33:14.736Z,101699.52
2018-05-23T22:35:43.576Z,101697.80
2018-05-23T22:38:12.395Z,101702.95
2018-05-23T22:40:41.203Z,101701.23
2018-05-23T22:43:10.192Z,101696.23
2018-05-23T22:45:39.005Z,101695.03
2018-05-23T22:48:07.870Z,101696.09
2018-05-23T22:50:36.703Z,101704.50
2018-05-23T22:53:05.530Z,101700.70
2018-05-23T22:55:34.333Z,101701.59
2018-05-23T22:58:03.167Z,101702.09
2018-05-23T23:00:31.980Z,101705.72
2018-05-23T23:03:00.811Z,101706.41
2018-05-23T23:05:29.613Z,101706.42
2018-05-23T23:07:58.448Z,101702.10
2018-05-23T23:10:27.284Z,101701.61
2018-05-23T23:12:56.111Z,101700.74
2018-05-23T23:15:24.943Z,101702.48
2018-05-23T23:17:53.758Z,101702.64
2018-05-23T23:20:22.624Z,101697.84
2018-05-23T23:22:51.421Z,101700.41
2018-05-23T23:25:20.252Z,101701.80
2018-05-23T23:27:49.124Z,101697.49
2018-05-23T23:30:17.890Z,101702.47
2018-05-23T23:32:46.717Z,101696.47
2018-05-23T23:35:15.541Z,101698.17
2018-05-23T23:37:44.351Z,101700.57
2018-05-23T23:40:13.146Z,101695.42
2018-05-23T23:42:42.028Z,101691.31
2018-05-23T23:45:10.889Z,101694.77
2018-05-23T23:47:39.666Z,101693.03
2018-05-23T23:50:08.488Z,101692.50
2018-05-23T23:52:37.331Z,101694.87
2018-05-23T23:55:06.161Z,101690.06
2018-05-23T23:57:34.978Z,101691.75
